Time;durP1;ratioP1;P1;durP2;ratioP2;P2;SDS_P1;SDS_P2;PMS_P1;PMS_P2;Temp;Humidity;BMP_temperature;BMP_pressure;BME280_temperature;BME280_humidity;BME280_pressure;Samples;Min_cycle;Max_cycle;Signal;HPM_P1;HPM_P2
2021/12/21 00:00:17;;;;;;;2.72;1.70;;;;;;;-1.10;63.08;98633.66;1742665;82;20989;-37
2021/12/21 00:02:48;;;;;;;2.45;1.40;;;;;;;-1.13;63.14;98642.25;1743008;81;21029;-38
2021/12/21 00:05:18;;;;;;;2.25;1.35;;;;;;;-1.16;63.07;98651.37;1742746;82;21571;-38
2021/12/21 00:07:45;;;;;;;3.25;1.80;;;;;;;-1.20;63.01;98657.02;1742789;81;21050;-37
2021/12/21 00:10:14;;;;;;;2.60;1.45;;;;;;;-1.29;63.06;98657.48;1737699;81;20954;-37
2021/12/21 00:15:33;;;;;;;2.45;1.55;;;;;;;-1.50;63.17;98661.90;1742765;82;21286;-37
2021/12/21 00:17:59;;;;;;;2.90;1.85;;;;;;;-1.57;63.22;98663.39;1742348;81;20914;-37
2021/12/21 00:25:20;;;;;;;2.45;1.55;;;;;;;-1.61;63.85;98676.50;1742748;81;21888;-38
2021/12/21 00:27:48;;;;;;;2.83;1.70;;;;;;;-1.65;64.00;98679.50;1743104;82;21013;-38
2021/12/21 00:30:15;;;;;;;2.58;1.70;;;;;;;-1.63;64.17;98685.83;1742544;82;21131;-37
2021/12/21 00:32:43;;;;;;;3.52;1.90;;;;;;;-1.67;63.83;98685.64;1742696;82;20941;-37
2021/12/21 00:35:10;;;;;;;2.40;1.60;;;;;;;-1.74;63.83;98690.55;1742691;81;20997;-38
2021/12/21 00:37:41;;;;;;;2.77;1.70;;;;;;;-1.79;63.81;98693.30;1743154;81;21005;-38
2021/12/21 00:40:07;;;;;;;2.58;1.90;;;;;;;-1.87;64.07;98705.95;1742686;81;21544;-38
2021/12/21 00:42:33;;;;;;;2.25;1.30;;;;;;;-1.89;64.12;98706.80;1743041;81;21099;-37
2021/12/21 00:45:00;;;;;;;2.12;1.27;;;;;;;-1.90;63.81;98705.22;1742714;82;21523;-37
2021/12/21 00:47:27;;;;;;;2.55;1.45;;;;;;;-1.99;63.61;98706.45;1742863;81;21030;-37
2021/12/21 00:50:01;;;;;;;3.20;1.42;;;;;;;-2.06;62.84;98713.20;1742719;81;20899;-38
2021/12/21 00:52:28;;;;;;;3.02;1.85;;;;;;;-2.13;62.71;98714.90;1743225;82;21554;-37
2021/12/21 00:54:54;;;;;;;2.72;1.57;;;;;;;-2.20;62.93;98717.16;1742752;81;21130;-37
2021/12/21 00:57:21;;;;;;;2.25;1.60;;;;;;;-2.26;62.40;98711.14;1742596;82;20938;-38
2021/12/21 00:59:48;;;;;;;3.20;1.75;;;;;;;-2.34;62.54;98720.31;1742765;81;21029;-37
2021/12/21 01:02:15;;;;;;;2.70;1.32;;;;;;;-2.38;62.35;98721.44;1742750;81;21037;-37
2021/12/21 01:04:46;;;;;;;1.77;1.17;;;;;;;-2.43;62.54;98718.88;1742674;81;21580;-37
2021/12/21 01:17:46;;;;;;;1.80;1.30;;;;;;;-2.40;62.29;98736.06;1742823;81;21650;-37
2021/12/21 01:20:12;;;;;;;1.50;1.20;;;;;;;-2.43;62.42;98735.33;1741533;81;21144;-38
2021/12/21 01:23:08;;;;;;;3.72;1.30;;;;;;;-2.44;62.49;98738.52;1706963;83;21602;-37
2021/12/21 01:35:48;;;;;;;1.65;1.22;;;;;;;-2.44;61.98;98745.16;1742735;81;21497;-37
2021/12/21 01:38:33;;;;;;;2.30;1.40;;;;;;;-2.42;61.75;98748.29;1742776;81;21009;-37
2021/12/21 01:43:33;;;;;;;1.95;1.37;;;;;;;-2.47;61.47;98756.33;1742655;81;21012;-37
2021/12/21 01:51:25;;;;;;;1.20;1.00;;;;;;;-2.51;61.13;98769.93;1742822;82;21013;-38
2021/12/21 01:53:52;;;;;;;1.52;1.07;;;;;;;-2.51;61.26;98776.56;1743140;81;21033;-38
2021/12/21 01:56:19;;;;;;;2.22;1.00;;;;;;;-2.50;61.36;98772.05;1742801;82;21835;-38
2021/12/21 01:58:46;;;;;;;3.90;1.57;;;;;;;-2.48;61.34;98776.01;1742795;82;21160;-38
2021/12/21 02:01:16;;;;;;;4.35;2.02;;;;;;;-2.51;61.13;98777.09;1742812;81;21005;-37
2021/12/21 02:03:47;;;;;;;4.37;1.80;;;;;;;-2.54;61.05;98781.66;1743345;82;25305;-37
2021/12/21 02:06:11;;;;;;;3.97;1.80;;;;;;;-2.60;61.21;98783.59;1742961;81;20985;-38
2021/12/21 02:08:39;;;;;;;3.95;1.70;;;;;;;-2.60;61.65;98789.44;1742942;81;21495;-38
2021/12/21 02:11:05;;;;;;;3.25;1.90;;;;;;;-2.57;61.73;98795.52;1742749;82;21500;-38
2021/12/21 02:13:35;;;;;;;3.40;1.40;;;;;;;-2.54;61.62;98805.55;1742983;82;21823;-38
2021/12/21 02:16:01;;;;;;;3.80;1.85;;;;;;;-2.57;61.29;98802.95;1743078;81;21553;-38
2021/12/21 02:18:35;;;;;;;4.12;2.17;;;;;;;-2.64;61.37;98806.48;1742775;82;21014;-37
2021/12/21 02:21:07;;;;;;;3.75;1.90;;;;;;;-2.72;61.56;98811.11;1742696;81;21276;-37
2021/12/21 02:23:34;;;;;;;5.97;1.87;;;;;;;-3.15;61.77;98750.11;1742481;81;21597;-37
2021/12/21 02:26:19;;;;;;;2.40;1.50;;;;;;;-2.78;61.70;98814.89;1742884;81;21005;-37
2021/12/21 02:28:46;;;;;;;3.60;1.70;;;;;;;-2.82;61.82;98815.22;1741759;81;21029;-38
2021/12/21 02:31:01;;;;;;;5.05;1.90;;;;;;;-2.85;62.01;98814.44;1741916;81;21073;-37
2021/12/21 02:33:28;;;;;;;5.12;2.17;;;;;;;-2.84;62.22;98820.01;1743008;82;21519;-38
2021/12/21 02:35:57;;;;;;;6.05;2.05;;;;;;;-2.85;62.08;98821.08;1742784;82;21115;-38
2021/12/21 02:38:25;;;;;;;7.40;3.27;;;;;;;-2.84;62.40;98818.68;1742631;82;20950;-37
2021/12/21 02:40:52;;;;;;;6.35;3.25;;;;;;;-2.80;62.13;98818.36;1742856;82;20950;-38
2021/12/21 02:43:19;;;;;;;7.90;3.75;;;;;;;-2.88;62.17;98817.14;1742765;81;21034;-37
2021/12/21 02:45:46;;;;;;;7.60;3.95;;;;;;;-2.90;62.44;98823.25;1742877;82;21049;-38
2021/12/21 02:48:13;;;;;;;5.60;3.15;;;;;;;-2.88;62.50;98825.63;1743043;82;21097;-38
2021/12/21 02:50:39;;;;;;;7.40;4.05;;;;;;;-2.91;62.23;98824.35;1742986;81;20986;-37
2021/12/21 02:53:07;;;;;;;5.22;2.72;;;;;;;-2.93;62.40;98825.69;1742640;82;21009;-37
2021/12/21 02:55:34;;;;;;;4.05;2.77;;;;;;;-2.98;62.46;98825.22;1746757;81;21052;-37
2021/12/21 02:58:02;;;;;;;3.20;2.50;;;;;;;-3.03;62.70;98826.61;1756069;81;21503;-37
2021/12/21 03:00:29;;;;;;;2.30;1.65;;;;;;;-2.99;62.72;98829.47;1756076;81;21115;-37
2021/12/21 03:02:56;;;;;;;2.42;1.42;;;;;;;-3.04;62.58;98833.51;1756164;81;21025;-37
2021/12/21 03:05:22;;;;;;;3.55;1.60;;;;;;;-3.11;62.62;98832.01;1756087;81;21567;-37
2021/12/21 03:08:09;;;;;;;3.87;1.57;;;;;;;-3.17;63.28;98837.11;1755932;81;21017;-37
2021/12/21 03:10:31;;;;;;;2.27;1.27;;;;;;;-3.14;63.29;98843.69;1755631;81;21522;-38
2021/12/21 03:15:27;;;;;;;1.80;1.40;;;;;;;-3.05;63.13;98848.66;1755972;81;21068;-37
2021/12/21 03:17:56;;;;;;;1.80;1.20;;;;;;;-3.04;63.00;98849.42;1756408;81;20968;-37
2021/12/21 03:20:23;;;;;;;2.50;1.37;;;;;;;-3.11;63.15;98847.92;1755951;81;21534;-37
2021/12/21 03:22:50;;;;;;;1.90;1.35;;;;;;;-3.15;63.35;98848.77;1756547;81;21112;-37
2021/12/21 03:25:19;;;;;;;1.77;1.32;;;;;;;-3.19;63.52;98849.84;1756018;81;21007;-37
2021/12/21 03:27:47;;;;;;;1.92;1.42;;;;;;;-3.18;63.48;98850.10;1756096;81;21068;-38
2021/12/21 03:30:15;;;;;;;1.67;1.30;;;;;;;-3.18;63.41;98850.10;1755901;81;21579;-38
2021/12/21 03:32:42;;;;;;;2.57;1.70;;;;;;;-3.21;63.38;98858.63;1756693;81;21068;-38
2021/12/21 03:35:09;;;;;;;2.05;1.40;;;;;;;-3.24;63.59;98859.17;1755920;81;21042;-37
2021/12/21 03:37:35;;;;;;;1.85;1.20;;;;;;;-3.21;63.91;98862.61;1756266;81;21108;-37
2021/12/21 03:40:04;;;;;;;1.95;1.30;;;;;;;-3.12;63.84;98863.56;1756040;81;21865;-37
2021/12/21 03:42:30;;;;;;;1.62;1.25;;;;;;;-3.12;63.66;98859.59;1756378;81;21037;-37
2021/12/21 03:44:58;;;;;;;2.37;1.45;;;;;;;-3.08;63.54;98855.83;1756004;81;21570;-38
2021/12/21 03:47:25;;;;;;;2.62;1.22;;;;;;;-3.07;63.37;98858.20;1756326;81;21024;-37
2021/12/21 03:49:58;;;;;;;1.72;1.25;;;;;;;-3.07;63.54;98858.20;1756053;81;21173;-38
2021/12/21 03:52:25;;;;;;;1.47;1.30;;;;;;;-3.04;63.39;98857.37;1755681;81;21880;-37
2021/12/21 03:54:55;;;;;;;2.08;1.40;;;;;;;-3.11;63.53;98857.20;1756089;81;21012;-38
2021/12/21 03:57:22;;;;;;;2.30;1.25;;;;;;;-3.17;63.77;98857.52;1755900;81;21048;-37
2021/12/21 03:59:49;;;;;;;1.80;1.30;;;;;;;-3.24;64.03;98860.50;1755975;81;21028;-38
2021/12/21 04:02:16;;;;;;;1.30;1.20;;;;;;;-3.32;64.63;98867.75;1756245;81;21852;-37
2021/12/21 04:04:44;;;;;;;2.15;1.35;;;;;;;-3.26;65.10;98875.91;1756108;81;21009;-37
2021/12/21 04:07:11;;;;;;;1.80;1.52;;;;;;;-3.24;65.37;98871.63;1756082;81;21640;-37
2021/12/21 04:09:39;;;;;;;3.40;1.85;;;;;;;-3.18;65.24;98869.98;1755893;81;21000;-37
2021/12/21 04:12:07;;;;;;;2.37;1.47;;;;;;;-3.22;65.33;98867.65;1756076;81;21053;-37
2021/12/21 04:14:35;;;;;;;2.75;1.52;;;;;;;-3.27;65.57;98876.97;1755987;81;21105;-37
2021/12/21 04:17:03;;;;;;;1.87;1.40;;;;;;;-3.36;65.70;98877.87;1756013;81;21629;-37
2021/12/21 04:19:30;;;;;;;2.52;1.77;;;;;;;-3.96;65.85;98810.59;1756149;81;21227;-37
2021/12/21 04:21:57;;;;;;;2.50;1.80;;;;;;;-3.61;66.19;98888.16;1756334;81;21016;-37
2021/12/21 04:24:23;;;;;;;2.27;1.65;;;;;;;-3.66;66.54;98889.52;1756073;81;21024;-38
2021/12/21 04:26:50;;;;;;;1.47;1.20;;;;;;;-3.59;66.47;98892.66;1756248;81;21068;-38
2021/12/21 04:29:17;;;;;;;1.40;1.30;;;;;;;-3.59;65.65;98888.69;1756144;81;21215;-38
2021/12/21 04:31:43;;;;;;;1.20;1.10;;;;;;;-3.96;65.18;98834.41;1756374;81;20976;-38
2021/12/21 04:34:10;;;;;;;1.62;1.25;;;;;;;-3.57;64.65;98901.09;1755870;81;21036;-38
2021/12/21 04:36:37;;;;;;;1.37;1.15;;;;;;;-3.55;64.22;98901.63;1756023;81;21091;-38
2021/12/21 04:39:17;;;;;;;2.27;1.30;;;;;;;-3.58;63.67;98907.46;1756130;81;22933;-38
2021/12/21 04:41:34;;;;;;;3.98;1.22;;;;;;;-3.68;62.74;98907.01;1754861;81;21747;-38
2021/12/21 04:44:01;;;;;;;2.22;1.10;;;;;;;-3.73;62.76;98911.58;1755875;81;21072;-38
2021/12/21 04:46:28;;;;;;;3.87;1.32;;;;;;;-3.79;62.82;98920.09;1756058;81;21472;-38
2021/12/21 04:48:55;;;;;;;1.60;1.25;;;;;;;-3.86;62.34;98914.84;1756145;81;21029;-38
2021/12/21 04:51:22;;;;;;;1.65;1.27;;;;;;;-3.96;62.34;98907.23;1756153;81;21111;-38
2021/12/21 04:53:49;;;;;;;2.30;1.45;;;;;;;-3.99;62.23;98920.23;1755999;81;21484;-38
2021/12/21 04:56:16;;;;;;;1.57;1.30;;;;;;;-4.03;62.28;98922.64;1751524;81;20994;-38
2021/12/21 04:58:42;;;;;;;1.75;1.32;;;;;;;-4.02;62.12;98924.77;1742658;82;20938;-38
2021/12/21 05:01:09;;;;;;;1.62;1.17;;;;;;;-4.02;61.51;98924.20;1742752;82;21550;-38
2021/12/21 05:03:37;;;;;;;2.02;1.55;;;;;;;-4.06;61.66;98933.77;1742613;82;21137;-38
2021/12/21 05:06:04;;;;;;;2.08;1.17;;;;;;;-4.08;60.89;98933.27;1742471;81;20961;-38
2021/12/21 05:08:36;;;;;;;1.90;1.20;;;;;;;-4.17;60.93;98929.62;1742807;81;21535;-38
2021/12/21 05:11:05;;;;;;;1.47;1.10;;;;;;;-4.19;61.32;98938.35;1742584;81;21547;-38
2021/12/21 05:13:35;;;;;;;1.22;1.12;;;;;;;-4.18;60.70;98942.58;1742794;81;21084;-38
2021/12/21 05:16:02;;;;;;;1.70;1.30;;;;;;;-4.18;60.55;98935.17;1742820;81;21596;-38
2021/12/21 05:18:29;;;;;;;1.70;1.42;;;;;;;-4.22;60.37;98937.58;1758545;81;20984;-38
2021/12/21 05:20:56;;;;;;;1.40;1.20;;;;;;;-4.26;60.40;98943.70;1747307;81;20998;-38
2021/12/21 05:23:22;;;;;;;1.75;1.35;;;;;;;-4.32;60.23;98951.39;1742725;81;21598;-38
2021/12/21 05:25:49;;;;;;;1.65;1.12;;;;;;;-4.36;59.95;98952.48;1742910;82;21026;-38
2021/12/21 05:28:16;;;;;;;1.62;1.20;;;;;;;-4.38;60.19;98957.23;1742849;82;21125;-38
2021/12/21 05:30:43;;;;;;;1.52;1.25;;;;;;;-4.41;60.12;98952.50;1742929;81;21029;-38
2021/12/21 05:33:10;;;;;;;3.37;1.27;;;;;;;-4.44;59.58;98955.66;1742750;81;21587;-38
2021/12/21 05:35:36;;;;;;;1.12;0.98;;;;;;;-4.51;59.83;98949.89;1742924;82;20995;-38
2021/12/21 05:38:06;;;;;;;1.32;1.17;;;;;;;-4.51;60.04;98955.98;1742810;82;21053;-38
2021/12/21 05:40:37;;;;;;;1.25;1.10;;;;;;;-4.52;60.05;98956.23;1737033;82;21170;-38
2021/12/21 05:43:04;;;;;;;2.00;1.25;;;;;;;-4.49;59.12;98962.30;1742899;81;21025;-38
2021/12/21 05:45:31;;;;;;;2.67;1.20;;;;;;;-4.47;59.10;98966.80;1743037;81;21082;-38
2021/12/21 05:47:58;;;;;;;1.37;1.00;;;;;;;-4.45;58.74;98960.16;1737785;81;21026;-38
2021/12/21 05:50:25;;;;;;;1.87;1.17;;;;;;;-4.42;58.12;98960.17;1742888;81;21053;-38
2021/12/21 05:52:52;;;;;;;1.35;1.20;;;;;;;-4.42;57.89;98966.78;1742867;82;21791;-38
2021/12/21 05:55:20;;;;;;;1.77;1.25;;;;;;;-4.47;56.97;98974.21;1742706;82;21073;-38
2021/12/21 05:57:47;;;;;;;1.30;1.00;;;;;;;-4.56;57.12;98971.07;1742690;81;21508;-38
2021/12/21 06:00:18;;;;;;;3.25;1.00;;;;;;;-4.61;57.64;98976.38;1742850;82;21086;-38
2021/12/21 06:02:45;;;;;;;0.98;0.98;;;;;;;-4.67;57.02;98972.16;1707116;83;21056;-38
2021/12/21 06:05:12;;;;;;;1.60;1.20;;;;;;;-4.71;57.93;98983.02;1707023;84;21138;-38
2021/12/21 06:07:40;;;;;;;1.30;1.20;;;;;;;-4.72;57.94;98988.83;1707021;84;21013;-38
2021/12/21 06:10:16;;;;;;;1.87;1.20;;;;;;;-4.70;58.42;98988.57;1707244;84;21539;-38
2021/12/21 06:15:21;;;;;;;1.30;1.20;;;;;;;-4.76;58.43;98998.37;1707217;84;21795;-38
2021/12/21 06:25:57;;;;;;;1.57;0.90;;;;;;;-4.73;58.29;99007.60;1707006;84;20965;-38
2021/12/21 06:28:22;;;;;;;1.45;1.20;;;;;;;-4.75;58.57;99005.77;1707111;84;21085;-38
2021/12/21 06:30:50;;;;;;;1.60;1.20;;;;;;;-4.70;58.73;99016.34;1707037;84;21203;-38
2021/12/21 06:33:18;;;;;;;2.80;1.40;;;;;;;-4.70;58.81;99021.62;1707114;83;20960;-38
2021/12/21 06:35:44;;;;;;;1.50;1.20;;;;;;;-4.69;58.81;99020.02;1706986;84;21028;-38
2021/12/21 06:38:11;;;;;;;3.17;1.30;;;;;;;-4.64;59.06;99020.53;1707337;84;21033;-38
2021/12/21 06:40:38;;;;;;;1.55;1.27;;;;;;;-4.59;58.85;99027.93;1707178;84;21550;-38
2021/12/21 06:43:10;;;;;;;2.42;1.40;;;;;;;-4.53;58.41;99026.07;1707157;84;21858;-38
2021/12/21 06:53:38;;;;;;;1.70;1.40;;;;;;;-4.99;58.27;99058.42;1707245;84;21052;-38
2021/12/21 06:56:06;;;;;;;6.75;1.60;;;;;;;-5.13;58.53;99056.05;1707023;84;21115;-38
2021/12/21 06:58:34;;;;;;;1.82;1.50;;;;;;;-5.17;59.32;99065.01;1714857;83;20968;-38
2021/12/21 07:01:02;;;;;;;2.90;1.82;;;;;;;-5.14;59.71;99068.46;1714730;83;21530;-38
2021/12/21 07:03:30;;;;;;;3.65;1.62;;;;;;;-5.12;60.18;99074.78;1714825;83;20972;-38
2021/12/21 07:05:59;;;;;;;1.82;1.55;;;;;;;-5.12;60.51;99081.39;1714717;83;21088;-38
2021/12/21 07:08:29;;;;;;;3.87;1.70;;;;;;;-5.14;60.90;99093.56;1756986;81;21119;-38
2021/12/21 07:11:23;;;;;;;6.33;2.42;;;;;;;-5.12;61.64;99093.28;1714734;83;21716;-38
2021/12/21 07:19:14;;;;;;;6.10;2.98;;;;;;;-4.84;61.68;99100.16;1714961;83;21039;-38
2021/12/21 07:21:41;;;;;;;4.47;2.22;;;;;;;-4.74;61.72;99105.97;1714798;83;21159;-40
2021/12/21 07:24:07;;;;;;;2.25;1.52;;;;;;;-4.66;60.99;99104.66;1714882;83;21550;-38
2021/12/21 07:26:34;;;;;;;2.20;1.55;;;;;;;-4.63;60.13;99096.98;1714757;83;20936;-38
2021/12/21 07:29:00;;;;;;;2.58;1.70;;;;;;;-4.63;59.51;99105.44;1714966;83;21283;-38
2021/12/21 07:31:28;;;;;;;3.45;1.90;;;;;;;-4.68;59.18;99109.41;1714661;83;21088;-38
2021/12/21 07:33:56;;;;;;;5.85;2.50;;;;;;;-4.62;59.46;99117.61;1714672;83;21145;-38
2021/12/21 07:36:22;;;;;;;2.72;1.60;;;;;;;-4.58;58.94;99125.27;1714564;83;21017;-38
2021/12/21 07:38:48;;;;;;;8.78;4.25;;;;;;;-4.56;57.84;99121.84;1714819;83;21062;-38
2021/12/21 07:41:15;;;;;;;9.68;3.30;;;;;;;-4.60;57.41;99129.50;1714679;83;21543;-38
2021/12/21 07:43:42;;;;;;;4.17;2.50;;;;;;;-4.61;56.97;99129.78;1714641;83;21013;-38
2021/12/21 07:46:09;;;;;;;6.97;2.50;;;;;;;-4.65;55.67;99139.31;1714720;83;21130;-38
2021/12/21 07:48:37;;;;;;;5.72;2.72;;;;;;;-4.71;55.09;99139.04;1714757;83;21456;-38
2021/12/21 07:51:06;;;;;;;10.68;5.22;;;;;;;-4.74;54.86;99147.52;1714677;83;21084;-38
2021/12/21 07:53:35;;;;;;;5.05;2.60;;;;;;;-4.76;54.48;99146.97;1714581;83;21041;-38
2021/12/21 07:56:04;;;;;;;8.05;3.65;;;;;;;-4.83;54.32;99154.63;1714644;83;21012;-38
2021/12/21 07:58:33;;;;;;;3.58;2.30;;;;;;;-4.85;54.29;99154.64;1708214;83;21491;-38
2021/12/21 08:01:00;;;;;;;5.90;3.00;;;;;;;-4.87;53.74;99145.64;1742902;81;20999;-38
2021/12/21 08:03:28;;;;;;;5.58;2.42;;;;;;;-4.85;53.95;99158.08;1743109;81;21080;-38
2021/12/21 08:05:58;;;;;;;6.90;3.10;;;;;;;-4.82;53.37;99153.58;1742786;82;21080;-38
2021/12/21 08:08:27;;;;;;;4.12;2.58;;;;;;;-4.78;53.29;99156.48;1743254;82;21084;-38
2021/12/21 08:11:07;;;;;;;4.12;2.17;;;;;;;-4.72;52.98;99157.28;1707130;83;21098;-38
2021/12/21 08:13:23;;;;;;;2.50;1.10;;;;;;;-4.68;52.14;99159.13;1705316;84;21495;-38
2021/12/21 08:15:50;;;;;;;4.10;2.25;;;;;;;-4.63;51.39;99160.98;1707161;84;20957;-38
2021/12/21 08:18:16;;;;;;;8.50;2.37;;;;;;;-4.66;51.07;99168.13;1706802;84;20961;-38
2021/12/21 08:20:43;;;;;;;4.92;2.50;;;;;;;-4.65;50.99;99173.69;1706992;84;21546;-38
2021/12/21 08:23:10;;;;;;;4.37;3.00;;;;;;;-4.67;51.58;99174.47;1707073;84;21137;-38
2021/12/21 08:25:36;;;;;;;5.85;2.30;;;;;;;-4.60;52.13;99178.98;1707156;84;20925;-38
2021/12/21 08:28:06;;;;;;;3.60;2.15;;;;;;;-4.49;51.15;99176.58;1706907;84;21546;-38
2021/12/21 08:30:34;;;;;;;7.28;2.75;;;;;;;-4.56;50.75;99174.22;1707197;84;20982;-38
2021/12/21 08:33:00;;;;;;;4.53;2.47;;;;;;;-4.64;50.92;99175.25;1707337;84;20994;-38
2021/12/21 08:35:27;;;;;;;3.45;2.20;;;;;;;-4.59;50.88;99178.70;1707055;84;21343;-38
2021/12/21 08:38:01;;;;;;;4.87;2.30;;;;;;;-4.51;50.59;99180.04;1707035;84;21507;-38
2021/12/21 08:40:22;;;;;;;4.58;2.50;;;;;;;-4.41;50.47;99182.16;1706133;84;20941;-38
2021/12/21 08:42:51;;;;;;;5.60;2.50;;;;;;;-4.32;50.48;99175.79;1707031;84;21500;-38
2021/12/21 08:45:19;;;;;;;3.05;1.92;;;;;;;-4.25;50.19;99179.47;1706842;84;20953;-38
2021/12/21 08:47:46;;;;;;;4.17;2.40;;;;;;;-4.14;50.22;99171.25;1707145;84;21870;-38
2021/12/21 08:50:13;;;;;;;2.42;1.60;;;;;;;-4.02;50.42;99181.01;1706763;84;21009;-38
2021/12/21 08:52:40;;;;;;;4.85;2.42;;;;;;;-3.91;50.20;99173.84;1707184;84;20992;-38
2021/12/21 08:55:09;;;;;;;3.98;2.72;;;;;;;-3.85;49.59;99179.39;1706867;84;21032;-38
2021/12/21 08:57:36;;;;;;;4.28;2.60;;;;;;;-3.82;49.66;99182.81;1709821;83;21041;-38
2021/12/21 09:00:07;;;;;;;5.70;2.60;;;;;;;-3.81;48.96;99183.61;1714509;83;21168;-38
2021/12/21 09:02:37;;;;;;;4.60;2.60;;;;;;;-3.84;49.14;99196.08;1714727;83;20968;-38
2021/12/21 09:05:16;;;;;;;4.08;1.95;;;;;;;-3.80;49.34;99192.62;1714599;83;21503;-38
2021/12/21 09:07:43;;;;;;;2.83;1.60;;;;;;;-3.72;48.79;99201.86;1714379;83;21028;-38
2021/12/21 09:13:15;;;;;;;2.35;1.70;;;;;;;-3.54;47.84;99205.27;1796534;79;22690;-37
2021/12/21 09:15:42;;;;;;;4.33;2.30;;;;;;;-3.41;47.86;99204.67;1756751;80;21539;-37
2021/12/21 09:18:09;;;;;;;3.80;2.17;;;;;;;-3.24;47.48;99203.78;1756465;81;21594;-37
2021/12/21 09:20:36;;;;;;;2.33;1.98;;;;;;;-3.22;46.71;99206.97;1756586;81;20909;-38
2021/12/21 09:23:03;;;;;;;6.83;2.90;;;;;;;-3.29;46.50;99218.38;1756560;81;20942;-37
2021/12/21 09:25:29;;;;;;;3.00;1.92;;;;;;;-3.47;46.31;99216.34;1763667;80;21012;-37
2021/12/21 09:27:57;;;;;;;4.47;2.65;;;;;;;-3.61;46.30;99220.64;1757087;80;21024;-37
2021/12/21 09:30:27;;;;;;;4.80;3.00;;;;;;;-3.76;46.65;99212.73;1726324;83;21825;-37
2021/12/21 09:32:53;;;;;;;4.42;2.37;;;;;;;-3.87;47.32;99229.73;1726432;82;21646;-38
2021/12/21 09:35:20;;;;;;;10.25;3.62;;;;;;;-3.84;47.24;99235.27;1726449;82;21012;-37
2021/12/21 09:37:47;;;;;;;6.53;3.00;;;;;;;-3.83;47.64;99233.42;1726351;83;21024;-37
2021/12/21 09:40:19;;;;;;;7.00;3.00;;;;;;;-3.87;47.77;99230.50;1726417;82;21563;-38
2021/12/21 09:42:45;;;;;;;5.70;2.65;;;;;;;-3.96;47.97;99224.95;1726345;83;21119;-37
2021/12/21 09:45:14;;;;;;;4.95;2.47;;;;;;;-4.00;48.07;99226.55;1726235;82;21526;-37
2021/12/21 09:47:42;;;;;;;4.83;2.30;;;;;;;-4.10;47.72;99231.06;1726443;83;21088;-37
2021/12/21 09:50:11;;;;;;;4.53;2.52;;;;;;;-4.47;48.29;99186.37;1726218;83;21535;-37
2021/12/21 09:52:38;;;;;;;4.05;2.52;;;;;;;-4.25;48.54;99231.08;1726394;82;21068;-37
2021/12/21 09:55:09;;;;;;;6.62;2.70;;;;;;;-4.28;48.25;99239.03;1726392;83;21793;-37
2021/12/21 09:57:38;;;;;;;5.20;2.33;;;;;;;-4.28;48.24;99234.27;1726366;82;21530;-37
2021/12/21 10:00:09;;;;;;;4.15;2.45;;;;;;;-4.25;48.42;99237.69;1726271;82;20985;-37
2021/12/21 10:02:35;;;;;;;5.60;2.65;;;;;;;-4.18;48.60;99248.29;1726312;82;21614;-37
2021/12/21 10:05:08;;;;;;;3.33;2.00;;;;;;;-4.04;48.23;99246.69;1726294;82;21091;-37
2021/12/21 10:07:35;;;;;;;3.90;2.00;;;;;;;-3.97;48.24;99244.55;1726473;82;21142;-38
2021/12/21 10:10:11;;;;;;;3.08;2.40;;;;;;;-3.93;47.87;99248.00;1726488;82;21025;-37
2021/12/21 10:12:42;;;;;;;5.33;2.42;;;;;;;-4.02;47.31;99244.55;1718369;82;21515;-37
2021/12/21 10:15:23;;;;;;;3.22;1.98;;;;;;;-4.13;46.89;99245.64;1713393;83;21080;-37
2021/12/21 10:18:00;;;;;;;3.05;2.00;;;;;;;-4.27;47.23;99245.91;1713947;83;21050;-37
2021/12/21 10:20:37;;;;;;;3.70;1.67;;;;;;;-4.30;47.47;99243.78;1713743;82;21121;-37
2021/12/21 10:23:20;;;;;;;4.08;2.15;;;;;;;-4.36;46.18;99249.36;1713524;83;20963;-37
2021/12/21 10:26:02;;;;;;;3.67;2.20;;;;;;;-4.58;46.58;99250.39;1713349;82;21034;-37
2021/12/21 10:28:40;;;;;;;2.85;1.80;;;;;;;-4.67;47.05;99255.94;1713409;82;21033;-37
2021/12/21 10:31:17;;;;;;;7.35;2.27;;;;;;;-4.71;46.52;99253.55;1713207;82;21112;-37
2021/12/21 10:33:44;;;;;;;4.92;2.58;;;;;;;-4.75;46.92;99251.70;1713474;83;21185;-37
2021/12/21 10:36:11;;;;;;;5.10;2.90;;;;;;;-4.73;46.83;99253.02;1713067;83;21599;-37
2021/12/21 10:38:48;;;;;;;2.47;1.90;;;;;;;-4.60;46.61;99256.45;1713210;82;20950;-37
2021/12/21 10:41:31;;;;;;;2.30;1.80;;;;;;;-4.52;45.94;99257.81;1713035;82;21034;-37
2021/12/21 10:44:09;;;;;;;2.75;2.10;;;;;;;-4.45;46.30;99263.62;1713185;83;21029;-37
2021/12/21 10:46:39;;;;;;;3.85;2.05;;;;;;;-4.52;45.35;99269.19;1713444;83;21157;-37
2021/12/21 10:49:12;;;;;;;3.02;1.82;;;;;;;-4.62;45.57;99264.41;1713186;83;21009;-37
2021/12/21 10:52:07;;;;;;;3.40;1.85;;;;;;;-4.74;45.75;99275.77;1713064;83;21016;-37
2021/12/21 10:54:46;;;;;;;3.12;1.55;;;;;;;-4.80;45.93;99268.87;1713293;83;21602;-37
2021/12/21 10:57:20;;;;;;;1.37;1.25;;;;;;;-4.78;45.93;99272.03;1713224;83;21063;-37
2021/12/21 10:59:54;;;;;;;2.92;1.80;;;;;;;-4.84;46.04;99278.63;1713160;83;21146;-37
2021/12/21 11:02:28;;;;;;;1.90;1.20;;;;;;;-4.76;45.83;99278.67;1698134;83;20997;-37
2021/12/21 11:05:07;;;;;;;3.05;1.67;;;;;;;-4.54;45.53;99291.13;1713127;82;20902;-37
2021/12/21 11:07:46;;;;;;;1.70;1.30;;;;;;;-4.26;45.55;99283.77;1713043;83;20977;-37
2021/12/21 11:10:16;;;;;;;2.80;1.65;;;;;;;-3.81;44.50;99280.28;1713135;82;21567;-37
2021/12/21 11:12:53;;;;;;;2.83;1.42;;;;;;;-3.55;44.50;99288.45;1719852;83;22094;-38
2021/12/21 11:15:28;;;;;;;2.80;1.75;;;;;;;-3.31;43.37;99284.67;1725886;82;21657;-37
2021/12/21 11:17:52;;;;;;;2.22;1.65;;;;;;;-3.14;43.02;99289.91;1725718;82;20945;-38
2021/12/21 11:20:18;;;;;;;2.65;1.65;;;;;;;-3.05;42.54;99290.16;1725972;83;20989;-38
2021/12/21 11:22:45;;;;;;;2.47;1.60;;;;;;;-2.92;43.33;99296.19;1726273;83;21511;-37
2021/12/21 11:25:13;;;;;;;2.92;1.60;;;;;;;-2.64;42.63;99310.09;1726089;83;21817;-37
2021/12/21 11:27:42;;;;;;;1.27;1.10;;;;;;;-2.52;41.64;99305.00;1725894;81;21073;-37
2021/12/21 11:30:15;;;;;;;1.75;1.15;;;;;;;-2.63;41.58;99300.28;1745761;81;20992;-38
2021/12/21 11:32:45;;;;;;;2.30;1.40;;;;;;;-3.04;41.31;99309.48;1756061;81;20893;-37
2021/12/21 11:37:43;;;;;;;4.58;1.65;;;;;;;-3.96;43.86;99308.36;1756081;81;21126;-37
2021/12/21 11:40:12;;;;;;;;;;;;;;;-4.28;44.89;99317.10;1758710;81;20981;-37
2021/12/21 11:43:12;;;;;;;1.92;1.27;;;;;;;-4.47;45.22;99318.66;1756334;81;20190;-37
2021/12/21 11:45:51;;;;;;;4.35;1.52;;;;;;;-4.60;45.36;99319.94;1756268;81;21012;-37
2021/12/21 11:48:39;;;;;;;6.30;1.50;;;;;;;-4.70;44.84;99327.08;1751576;81;21092;-37
2021/12/21 11:51:09;;;;;;;2.92;1.50;;;;;;;-4.76;45.87;99313.57;1755758;81;20998;-37
2021/12/21 11:53:37;;;;;;;2.00;1.40;;;;;;;-4.62;45.80;99315.45;1756080;81;21036;-37
2021/12/21 11:56:05;;;;;;;3.30;1.30;;;;;;;-4.43;45.53;99317.88;1755998;81;21003;-37
2021/12/21 11:58:40;;;;;;;2.37;1.55;;;;;;;-4.20;45.15;99325.03;1755949;81;20965;-37
2021/12/21 12:01:26;;;;;;;2.08;1.27;;;;;;;-3.97;44.18;99326.62;1755987;81;20996;-37
2021/12/21 12:04:06;;;;;;;2.02;1.40;;;;;;;-3.91;43.64;99326.63;1756158;81;21110;-37
2021/12/21 12:06:48;;;;;;;2.27;1.50;;;;;;;-3.91;43.33;99335.90;1756227;81;21012;-37
2021/12/21 12:09:30;;;;;;;1.67;1.15;;;;;;;-4.01;43.55;99343.31;1755624;81;21040;-37
2021/12/21 12:12:14;;;;;;;2.22;1.37;;;;;;;-4.10;42.83;99343.05;1754659;81;21056;-38
2021/12/21 12:14:44;;;;;;;3.05;1.60;;;;;;;-4.33;43.90;99346.20;1734417;82;21017;-37
2021/12/21 12:17:23;;;;;;;3.45;1.80;;;;;;;-4.51;43.77;99354.64;1734302;82;21114;-37
2021/12/21 12:20:05;;;;;;;3.08;1.70;;;;;;;-4.66;44.08;99354.59;1729381;82;21010;-37
2021/12/21 12:22:41;;;;;;;4.80;1.77;;;;;;;-4.77;44.15;99361.69;1734361;82;21540;-37
2021/12/21 12:25:21;;;;;;;4.28;1.80;;;;;;;-4.94;43.89;99369.81;1734227;82;21013;-37
2021/12/21 12:27:51;;;;;;;3.33;2.00;;;;;;;-5.18;44.51;99377.11;1726920;82;21045;-37
2021/12/21 12:30:22;;;;;;;4.12;2.00;;;;;;;-5.43;44.99;99373.80;1713265;82;21111;-37
2021/12/21 12:32:56;;;;;;;4.70;2.12;;;;;;;-5.54;45.83;99378.73;1713009;82;22207;-37
2021/12/21 12:35:25;;;;;;;3.60;1.90;;;;;;;-5.59;45.79;99378.17;1725484;82;21839;-37
2021/12/21 12:38:02;;;;;;;2.58;1.77;;;;;;;-5.72;46.45;99379.41;1713252;83;21054;-37
2021/12/21 12:40:48;;;;;;;3.90;1.80;;;;;;;-5.76;46.69;99380.94;1713148;82;20982;-37
2021/12/21 12:43:21;;;;;;;4.22;2.12;;;;;;;-5.85;46.75;99385.09;1712884;82;21921;-37
2021/12/21 12:45:52;;;;;;;3.75;1.95;;;;;;;-5.97;47.49;99391.11;1712887;82;20966;-37
2021/12/21 12:48:32;;;;;;;4.35;1.80;;;;;;;-5.99;48.32;99389.75;1713215;83;21025;-37
2021/12/21 12:51:07;;;;;;;2.08;1.50;;;;;;;-5.94;48.20;99393.23;1713102;83;20930;-37
2021/12/21 12:53:42;;;;;;;4.55;1.85;;;;;;;-5.92;48.29;99389.83;1713024;82;21025;-37